createdAt,value
2022-08-05T00:01:20.589Z,18.42
2022-08-05T00:04:09.802Z,18.50
2022-08-05T00:06:55.240Z,18.46
2022-08-05T00:09:44.627Z,18.39
2022-08-05T00:12:28.646Z,18.22
2022-08-05T00:15:58.239Z,18.40
2022-08-05T00:18:22.533Z,18.35
2022-08-05T00:21:10.606Z,18.42
2022-08-05T00:24:10.658Z,18.43
2022-08-05T00:27:01.756Z,18.36
2022-08-05T00:29:45.882Z,18.26
2022-08-05T00:32:32.590Z,18.21
2022-08-05T00:35:33.175Z,18.19
2022-08-05T00:38:28.618Z,18.16
2022-08-05T00:41:15.477Z,18.44
2022-08-05T00:44:08.636Z,18.34
2022-08-05T00:46:54.072Z,18.26
2022-08-05T00:49:51.438Z,18.26
2022-08-05T00:52:32.570Z,18.36
2022-08-05T00:55:42.217Z,18.22
2022-08-05T00:58:27.499Z,18.19
2022-08-05T01:01:24.926Z,18.09
2022-08-05T01:04:20.102Z,18.07
2022-08-05T01:07:13.961Z,18.22
2022-08-05T01:09:58.528Z,18.06
2022-08-05T01:13:05.188Z,17.99
2022-08-05T01:15:57.681Z,18.14
2022-08-05T01:18:53.723Z,17.95
2022-08-05T01:21:59.050Z,17.95
2022-08-05T01:25:40.387Z,18.00
2022-08-05T01:28:39.513Z,18.02
2022-08-05T01:31:50.765Z,18.02
2022-08-05T01:34:40.901Z,17.94
2022-08-05T01:37:32.081Z,17.84
2022-08-05T01:40:22.546Z,17.86
2022-08-05T01:43:10.650Z,17.90
2022-08-05T01:46:16.419Z,17.85
2022-08-05T01:49:24.383Z,17.74
2022-08-05T01:52:17.827Z,17.62
2022-08-05T01:55:04.473Z,17.70
2022-08-05T01:58:13.082Z,17.61
2022-08-05T02:00:59.736Z,17.64
2022-08-05T02:03:52.616Z,17.67
2022-08-05T02:06:38.266Z,17.62
2022-08-05T02:09:26.574Z,17.43
2022-08-05T02:12:17.602Z,17.44
2022-08-05T02:15:34.939Z,17.44
2022-08-05T02:18:49.685Z,17.36
2022-08-05T02:22:26.389Z,17.32
2022-08-05T02:25:16.224Z,17.29
2022-08-05T02:28:08.998Z,17.32
2022-08-05T02:30:56.568Z,17.22
2022-08-05T02:33:57.495Z,17.24
2022-08-05T02:36:42.749Z,17.22
2022-08-05T02:39:32.078Z,17.13
2022-08-05T02:42:25.971Z,17.23
2022-08-05T02:45:16.875Z,17.23
2022-08-05T02:48:11.499Z,17.23
2022-08-05T02:51:01.045Z,17.23
2022-08-05T02:53:44.691Z,17.07
2022-08-05T02:56:36.565Z,17.10
2022-08-05T02:59:27.153Z,17.12
2022-08-05T03:02:16.572Z,17.06
2022-08-05T03:05:00.712Z,16.98
2022-08-05T03:08:06.627Z,16.87
2022-08-05T03:11:01.335Z,16.83
2022-08-05T03:14:03.104Z,16.86
2022-08-05T03:16:45.739Z,16.87
2022-08-05T03:19:36.298Z,16.80
2022-08-05T03:22:31.955Z,16.81
2022-08-05T03:25:34.094Z,16.80
2022-08-05T03:28:21.847Z,16.71
2022-08-05T03:31:10.974Z,16.73
2022-08-05T03:34:24.626Z,16.60
2022-08-05T03:37:12.622Z,16.62
2022-08-05T03:40:08.707Z,16.58
2022-08-05T03:42:59.365Z,16.56
2022-08-05T03:45:58.056Z,16.53
2022-08-05T03:48:47.753Z,16.54
2022-08-05T03:52:49.414Z,16.51
2022-08-05T03:55:51.763Z,16.52
2022-08-05T03:57:51.745Z,16.43
2022-08-05T04:00:41.910Z,16.49
2022-08-05T04:03:28.403Z,16.53
2022-08-05T04:06:16.677Z,16.48
2022-08-05T04:09:00.765Z,16.47
2022-08-05T04:11:52.347Z,16.43
2022-08-05T04:14:34.721Z,16.49
2022-08-05T04:17:21.739Z,16.47
2022-08-05T04:20:04.907Z,16.45
2022-08-05T04:22:53.631Z,16.46
2022-08-05T04:25:56.912Z,16.42
2022-08-05T04:28:51.283Z,16.34
2022-08-05T04:31:37.539Z,16.43
2022-08-05T04:34:37.565Z,16.37
2022-08-05T04:38:02.244Z,16.44
2022-08-05T04:40:32.149Z,16.37
2022-08-05T04:43:22.097Z,16.30
2022-08-05T04:46:02.660Z,16.24
2022-08-05T04:48:52.798Z,16.20
2022-08-05T04:51:34.035Z,16.23
2022-08-05T04:54:23.042Z,16.28
2022-08-05T04:57:04.666Z,16.30
2022-08-05T04:59:52.757Z,16.35
2022-08-05T05:02:37.739Z,16.73
2022-08-05T05:05:32.874Z,17.15
2022-08-05T05:08:33.671Z,17.65
2022-08-05T05:11:22.506Z,18.30
2022-08-05T05:14:28.012Z,19.12
2022-08-05T05:17:24.200Z,19.87
2022-08-05T05:20:05.687Z,20.62
2022-08-05T05:22:52.800Z,21.45
2022-08-05T05:25:40.960Z,22.34
2022-08-05T05:28:29.825Z,23.27
2022-08-05T05:31:11.790Z,24.12
2022-08-05T05:34:05.660Z,24.91
2022-08-05T05:36:53.744Z,25.72
2022-08-05T05:39:36.396Z,26.37
2022-08-05T05:42:24.672Z,27.11
2022-08-05T05:45:05.787Z,27.88
2022-08-05T05:48:06.266Z,28.53
2022-08-05T05:50:51.149Z,29.09
2022-08-05T05:53:54.579Z,29.63
2022-08-05T05:56:39.804Z,30.32
2022-08-05T05:59:28.837Z,30.90
2022-08-05T06:02:11.196Z,31.40
2022-08-05T06:05:00.334Z,31.88
2022-08-05T06:07:42.906Z,32.20
2022-08-05T06:10:52.439Z,32.51
2022-08-05T06:13:40.816Z,32.58
2022-08-05T06:16:42.610Z,32.86
2022-08-05T06:19:26.084Z,33.29
2022-08-05T06:22:30.091Z,33.66
2022-08-05T06:25:59.717Z,33.89
2022-08-05T06:28:22.550Z,34.09
2022-08-05T06:31:11.307Z,34.45
2022-08-05T06:34:13.251Z,34.69
2022-08-05T06:37:03.292Z,34.94
2022-08-05T06:39:46.178Z,35.14
2022-08-05T06:42:34.816Z,35.35
2022-08-05T06:45:21.298Z,35.35
2022-08-05T06:48:52.871Z,35.48
2022-08-05T06:51:30.050Z,35.47
2022-08-05T06:54:19.836Z,35.64
2022-08-05T06:57:13.943Z,35.45
2022-08-05T07:00:14.928Z,35.52
2022-08-05T07:03:03.720Z,35.63
2022-08-05T07:05:57.831Z,35.52
2022-08-05T07:08:39.832Z,35.03
2022-08-05T07:11:31.156Z,34.92
2022-08-05T07:14:32.225Z,34.56
2022-08-05T07:18:00.619Z,33.91
2022-08-05T07:20:33.522Z,33.01
2022-08-05T07:23:26.280Z,32.80
2022-08-05T07:26:16.391Z,31.94
2022-08-05T07:29:09.893Z,32.42
2022-08-05T07:31:54.797Z,32.81
2022-08-05T07:34:49.721Z,33.10
2022-08-05T07:37:47.265Z,33.07
2022-08-05T07:40:32.952Z,33.30
2022-08-05T07:43:21.264Z,33.19
2022-08-05T07:46:01.973Z,32.28
2022-08-05T07:49:02.005Z,32.42
2022-08-05T07:51:54.381Z,32.67
2022-08-05T07:54:49.137Z,32.67
2022-08-05T07:57:56.322Z,32.59
2022-08-05T08:00:37.830Z,31.80
2022-08-05T08:03:21.536Z,30.74
2022-08-05T08:06:09.823Z,30.34
2022-08-05T08:08:51.948Z,30.27
2022-08-05T08:11:47.810Z,29.33
2022-08-05T08:14:40.814Z,28.76
2022-08-05T08:17:31.040Z,28.17
2022-08-05T08:20:44.198Z,28.90
2022-08-05T08:24:01.006Z,30.20
2022-08-05T08:26:26.782Z,29.90
2022-08-05T08:29:45.563Z,29.56
2022-08-05T08:32:27.755Z,28.39
2022-08-05T08:35:26.744Z,28.73
2022-08-05T08:38:17.267Z,28.62
2022-08-05T08:41:19.855Z,28.37
2022-08-05T08:45:19.799Z,27.22
2022-08-05T08:48:06.055Z,27.63
2022-08-05T08:50:52.083Z,27.38
2022-08-05T08:53:34.551Z,28.16
2022-08-05T08:56:27.192Z,28.27
2022-08-05T08:59:19.205Z,28.41
2022-08-05T09:02:13.999Z,28.31
2022-08-05T09:05:17.509Z,29.09
2022-08-05T09:08:09.702Z,29.64
2022-08-05T09:10:52.546Z,28.62
2022-08-05T09:14:10.183Z,27.94
2022-08-05T09:16:41.825Z,27.81
2022-08-05T09:20:01.624Z,28.07
2022-08-05T09:23:19.964Z,28.03
2022-08-05T09:26:20.559Z,27.99
2022-08-05T09:32:45.790Z,27.74
2022-08-05T09:35:34.216Z,26.64
2022-08-05T09:38:29.474Z,26.28
2022-08-05T09:41:12.838Z,26.18
2022-08-05T09:44:05.779Z,26.13
2022-08-05T09:46:51.937Z,26.21
2022-08-05T09:50:02.052Z,27.05
2022-08-05T09:52:45.402Z,27.48
2022-08-05T09:55:56.534Z,27.99
2022-08-05T09:58:34.810Z,27.21
2022-08-05T10:01:32.021Z,27.17
2022-08-05T10:04:29.228Z,27.35
2022-08-05T10:07:20.038Z,27.39
2022-08-05T10:13:14.657Z,26.20
2022-08-05T10:15:56.606Z,25.94
2022-08-05T10:18:48.080Z,26.49
2022-08-05T10:21:35.335Z,26.83
2022-08-05T10:24:28.639Z,26.75
2022-08-05T10:27:10.924Z,26.42
2022-08-05T10:30:06.335Z,26.97
2022-08-05T10:33:09.392Z,27.02
2022-08-05T10:36:06.991Z,26.05
2022-08-05T10:38:52.845Z,25.31
2022-08-05T10:41:47.391Z,25.34
2022-08-05T10:44:30.855Z,25.21
2022-08-05T10:47:27.069Z,25.12
2022-08-05T10:50:36.237Z,25.16
2022-08-05T10:53:42.652Z,25.38
2022-08-05T10:56:29.611Z,26.03
2022-08-05T11:00:03.709Z,25.86
2022-08-05T11:02:38.344Z,25.70
2022-08-05T11:05:29.244Z,25.63
2022-08-05T11:08:37.415Z,25.56
2022-08-05T11:11:52.006Z,25.29
2022-08-05T11:15:11.883Z,25.15
2022-08-05T11:18:05.889Z,25.17
2022-08-05T11:20:54.028Z,25.42
2022-08-05T11:24:30.176Z,25.23
2022-08-05T11:27:51.329Z,25.21
2022-08-05T11:31:06.623Z,24.54
2022-08-05T11:33:54.285Z,24.93
2022-08-05T11:38:26.327Z,25.58
2022-08-05T11:40:14.910Z,25.56
2022-08-05T11:43:09.746Z,25.73
2022-08-05T11:46:30.732Z,26.22
2022-08-05T11:49:04.005Z,26.67
2022-08-05T11:51:49.209Z,26.82
2022-08-05T11:54:41.807Z,26.53
2022-08-05T11:57:27.074Z,26.44
2022-08-05T12:00:38.273Z,26.20
2022-08-05T12:03:32.341Z,26.19
2022-08-05T12:06:22.066Z,26.07
2022-08-05T12:09:04.918Z,25.89
2022-08-05T12:11:53.029Z,25.93
2022-08-05T12:14:47.315Z,25.71
2022-08-05T12:18:02.829Z,25.40
2022-08-05T12:20:37.928Z,25.43
2022-08-05T12:23:25.045Z,25.79
2022-08-05T12:26:09.312Z,26.19
2022-08-05T12:28:58.819Z,26.61
2022-08-05T12:31:49.818Z,26.38
2022-08-05T12:34:50.945Z,26.09
2022-08-05T12:37:39.302Z,26.04
2022-08-05T12:40:26.697Z,25.88
2022-08-05T12:43:20.822Z,25.89
2022-08-05T12:46:03.089Z,25.72
2022-08-05T12:48:50.931Z,25.71
2022-08-05T12:52:12.037Z,25.75
2022-08-05T12:54:41.946Z,25.65
2022-08-05T12:57:23.232Z,25.68
2022-08-05T13:02:04.061Z,25.92
2022-08-05T13:03:15.934Z,26.01
2022-08-05T13:06:07.958Z,25.91
2022-08-05T13:08:54.050Z,26.12
2022-08-05T13:12:02.738Z,26.22
2022-08-05T13:14:47.564Z,25.72
2022-08-05T13:21:05.091Z,25.18
2022-08-05T13:23:52.802Z,24.95
2022-08-05T13:26:57.974Z,24.78
2022-08-05T13:29:59.384Z,24.97
2022-08-05T13:32:50.537Z,25.10
2022-08-05T13:35:51.378Z,25.19
2022-08-05T13:38:42.793Z,25.43
2022-08-05T13:41:35.111Z,25.53
2022-08-05T13:44:28.133Z,25.37
2022-08-05T13:47:10.905Z,25.14
2022-08-05T13:50:19.194Z,25.04
2022-08-05T13:53:00.363Z,24.67
2022-08-05T13:55:50.149Z,24.42
2022-08-05T13:58:40.348Z,24.57
2022-08-05T14:01:44.372Z,24.64
2022-08-05T14:04:50.187Z,24.51
2022-08-05T14:07:59.844Z,24.54
2022-08-05T14:10:44.498Z,24.51
2022-08-05T14:13:34.103Z,24.29
2022-08-05T14:16:16.994Z,24.23
2022-08-05T14:19:08.079Z,24.25
2022-08-05T14:22:09.041Z,24.35
2022-08-05T14:24:59.499Z,24.43
2022-08-05T14:27:40.407Z,24.49
2022-08-05T14:30:36.119Z,24.43
2022-08-05T14:33:22.737Z,24.28
2022-08-05T14:36:11.156Z,24.26
2022-08-05T14:38:52.758Z,24.21
2022-08-05T14:42:08.735Z,24.21
2022-08-05T14:44:47.136Z,24.17
2022-08-05T14:48:04.969Z,24.19
2022-08-05T14:50:40.795Z,24.20
2022-08-05T14:53:29.836Z,23.89
2022-08-05T14:56:11.024Z,23.82
2022-08-05T14:59:00.138Z,23.95
2022-08-05T15:01:48.262Z,24.01
2022-08-05T15:04:37.137Z,24.03
2022-08-05T15:08:06.502Z,23.83
2022-08-05T15:10:28.956Z,23.63
2022-08-05T15:13:12.397Z,23.63
2022-08-05T15:16:04.148Z,23.68
2022-08-05T15:18:47.223Z,23.67
2022-08-05T15:21:35.295Z,23.85
2022-08-05T15:24:16.136Z,23.74
2022-08-05T15:27:04.208Z,23.76
2022-08-05T15:29:51.428Z,23.85
2022-08-05T15:32:41.849Z,23.92
2022-08-05T15:35:36.036Z,23.88
2022-08-05T15:38:33.940Z,23.75
2022-08-05T15:41:25.277Z,23.93
2022-08-05T15:44:27.517Z,23.96
2022-08-05T15:47:16.875Z,23.75
2022-08-05T15:49:59.519Z,23.55
2022-08-05T15:52:53.738Z,23.45
2022-08-05T15:56:02.635Z,23.36
2022-08-05T15:58:44.036Z,23.28
2022-08-05T16:01:29.289Z,23.26
2022-08-05T16:04:18.486Z,23.33
2022-08-05T16:07:00.886Z,23.44
2022-08-05T16:09:48.432Z,23.53
2022-08-05T16:12:30.167Z,23.56
2022-08-05T16:15:19.116Z,23.36
2022-08-05T16:18:04.055Z,23.31
2022-08-05T16:20:52.806Z,23.31
2022-08-05T16:23:53.835Z,23.09
2022-08-05T16:26:56.822Z,23.16
2022-08-05T16:29:41.252Z,23.11
2022-08-05T16:32:31.350Z,22.90
2022-08-05T16:35:28.702Z,22.90
2022-08-05T16:38:28.143Z,22.85
2022-08-05T16:42:14.278Z,22.78
2022-08-05T16:44:21.246Z,22.89
2022-08-05T16:47:07.242Z,22.86
2022-08-05T16:50:18.828Z,22.90
2022-08-05T16:53:11.943Z,22.84
2022-08-05T16:56:00.812Z,22.66
2022-08-05T16:58:44.176Z,22.62
2022-08-05T17:01:54.560Z,22.61
2022-08-05T17:04:35.843Z,22.57
2022-08-05T17:07:39.272Z,22.55
2022-08-05T17:10:30.565Z,22.36
2022-08-05T17:13:21.280Z,22.36
2022-08-05T17:16:32.625Z,22.36
2022-08-05T17:19:24.447Z,22.29
2022-08-05T17:22:06.187Z,22.33
2022-08-05T17:25:00.246Z,22.23
2022-08-05T17:27:42.219Z,22.24
2022-08-05T17:30:30.600Z,22.34
2022-08-05T17:33:11.220Z,22.32
2022-08-05T17:36:32.824Z,22.30
2022-08-05T17:39:24.538Z,22.19
2022-08-05T17:42:30.204Z,22.17
2022-08-05T17:45:22.052Z,22.14
2022-08-05T17:48:04.214Z,22.09
2022-08-05T17:50:53.274Z,22.10
2022-08-05T17:53:35.911Z,22.12
2022-08-05T17:56:23.257Z,22.20
2022-08-05T17:59:09.096Z,22.12
2022-08-05T18:01:59.460Z,21.98
2022-08-05T18:04:51.332Z,21.97
2022-08-05T18:07:42.866Z,21.78
2022-08-05T18:10:25.956Z,21.75
2022-08-05T18:13:13.259Z,21.72
2022-08-05T18:15:54.108Z,21.65
2022-08-05T18:18:48.604Z,21.60
2022-08-05T18:22:08.916Z,21.53
2022-08-05T18:24:39.955Z,21.60
2022-08-05T18:27:21.503Z,21.62
2022-08-05T18:30:08.255Z,21.51
2022-08-05T18:32:53.676Z,21.56
2022-08-05T18:36:01.399Z,21.67
2022-08-05T18:38:53.515Z,21.68
2022-08-05T18:41:56.551Z,21.55
2022-08-05T18:44:51.509Z,21.40
2022-08-05T18:47:38.057Z,21.36
2022-08-05T18:50:46.964Z,21.28
2022-08-05T18:53:29.599Z,21.14
2022-08-05T18:56:25.407Z,21.10
2022-08-05T18:59:42.730Z,21.12
2022-08-05T19:02:36.475Z,21.01
2022-08-05T19:06:13.612Z,20.92
2022-08-05T19:08:30.440Z,20.71
2022-08-05T19:11:14.474Z,20.65
2022-08-05T19:14:15.293Z,20.48
2022-08-05T19:17:03.287Z,20.39
2022-08-05T19:19:54.555Z,20.29
2022-08-05T19:22:35.588Z,20.28
2022-08-05T19:25:30.700Z,20.13
2022-08-05T19:28:23.274Z,20.07
2022-08-05T19:31:13.393Z,19.98
2022-08-05T19:33:56.711Z,19.97
2022-08-05T19:36:47.305Z,19.93
2022-08-05T19:39:30.111Z,19.83
2022-08-05T19:42:35.066Z,19.78
2022-08-05T19:45:17.470Z,19.84
2022-08-05T19:48:06.169Z,19.80
2022-08-05T19:50:49.265Z,19.68
2022-08-05T19:54:04.588Z,19.66
2022-08-05T19:56:41.331Z,19.58
2022-08-05T19:59:55.137Z,19.57
2022-08-05T20:02:33.799Z,19.52
2022-08-05T20:05:25.055Z,19.50
2022-08-05T20:08:07.447Z,19.46
2022-08-05T20:10:58.182Z,19.27
2022-08-05T20:13:58.051Z,19.27
2022-08-05T20:16:46.195Z,19.25
2022-08-05T20:19:36.013Z,19.15
2022-08-05T20:22:26.589Z,19.42
2022-08-05T20:25:10.296Z,19.33
2022-08-05T20:27:59.198Z,19.13
2022-08-05T20:30:41.149Z,19.20
2022-08-05T20:33:29.216Z,19.06
2022-08-05T20:36:25.183Z,19.09
2022-08-05T20:39:17.072Z,19.03
2022-08-05T20:42:00.339Z,18.88
2022-08-05T20:44:48.204Z,18.96
2022-08-05T20:47:34.307Z,18.87
2022-08-05T20:50:27.939Z,18.81
2022-08-05T20:53:16.001Z,18.85
2022-08-05T20:56:24.518Z,18.85
2022-08-05T20:59:19.357Z,18.90
2022-08-05T21:02:14.255Z,18.64
2022-08-05T21:05:02.696Z,18.73
2022-08-05T21:07:52.047Z,18.78
2022-08-05T21:10:34.378Z,18.67
2022-08-05T21:13:36.789Z,18.62
2022-08-05T21:16:29.581Z,18.43
2022-08-05T21:19:20.759Z,18.53
2022-08-05T21:22:04.337Z,18.50
2022-08-05T21:24:56.598Z,18.53
2022-08-05T21:27:38.959Z,18.27
2022-08-05T21:30:29.228Z,18.30
2022-08-05T21:33:22.328Z,18.11
2022-08-05T21:36:10.977Z,18.08
2022-08-05T21:38:55.413Z,18.15
2022-08-05T21:41:42.223Z,18.19
2022-08-05T21:44:34.455Z,18.08
2022-08-05T21:47:55.167Z,18.14
2022-08-05T21:50:23.362Z,18.08
2022-08-05T21:53:17.623Z,18.02
2022-08-05T21:56:06.055Z,17.98
2022-08-05T21:59:08.081Z,17.94
2022-08-05T22:02:03.488Z,18.19
2022-08-05T22:04:50.265Z,18.10
2022-08-05T22:07:40.125Z,18.29
2022-08-05T22:10:41.522Z,18.00
2022-08-05T22:14:06.555Z,18.15
2022-08-05T22:16:50.908Z,17.97
2022-08-05T22:19:57.460Z,17.65
2022-08-05T22:23:03.790Z,17.70
2022-08-05T22:26:17.604Z,17.55
2022-08-05T22:29:08.648Z,17.67
2022-08-05T22:31:55.261Z,17.51
2022-08-05T22:34:49.063Z,17.54
2022-08-05T22:37:59.070Z,17.51
2022-08-05T22:40:49.379Z,17.63
2022-08-05T22:43:36.872Z,17.62
2022-08-05T22:46:25.850Z,17.59
2022-08-05T22:49:12.362Z,17.48
2022-08-05T22:52:30.488Z,17.24
2022-08-05T22:55:19.399Z,17.42
2022-08-05T22:58:11.620Z,17.27
2022-08-05T23:00:56.938Z,17.23
2022-08-05T23:03:57.785Z,17.21
2022-08-05T23:06:40.395Z,17.23
2022-08-05T23:09:53.234Z,17.06
2022-08-05T23:12:32.388Z,16.90
2022-08-05T23:15:22.446Z,17.10
2022-08-05T23:18:11.625Z,17.06
2022-08-05T23:21:04.036Z,16.96
2022-08-05T23:23:45.568Z,16.90
2022-08-05T23:26:36.448Z,16.84
2022-08-05T23:29:17.436Z,16.72
2022-08-05T23:32:08.047Z,16.61
2022-08-05T23:34:51.619Z,16.83
2022-08-05T23:37:46.302Z,16.64
2022-08-05T23:40:35.486Z,16.57
2022-08-05T23:43:25.604Z,16.52
2022-08-05T23:46:24.881Z,16.60
2022-08-05T23:49:16.868Z,16.48
2022-08-05T23:52:30.532Z,16.43
2022-08-05T23:55:14.329Z,16.48
2022-08-05T23:58:01.424Z,16.78
